Time;durP1;ratioP1;P1;durP2;ratioP2;P2;SDS_P1;SDS_P2;PMS_P1;PMS_P2;Temp;Humidity;BMP_temperature;BMP_pressure;BME280_temperature;BME280_humidity;BME280_pressure;Samples;Min_cycle;Max_cycle;Signal;HPM_P1;HPM_P2
2023/06/30 00:01:27;;;;;;;9.27;5.38;;;23.40;62.00;;;;;;5013997;28;20112;-46
2023/06/30 00:03:53;;;;;;;7.60;4.85;;;23.40;61.80;;;;;;5013407;28;20036;-43
2023/06/30 00:06:19;;;;;;;7.93;5.13;;;23.40;61.80;;;;;;5013883;28;20034;-44
2023/06/30 00:08:45;;;;;;;8.98;5.25;;;23.40;61.80;;;;;;5013779;28;20030;-46
2023/06/30 00:11:10;;;;;;;7.93;5.05;;;23.40;61.90;;;;;;5013647;28;20018;-44
2023/06/30 00:13:36;;;;;;;10.85;5.88;;;23.40;61.80;;;;;;5013408;28;20490;-46
2023/06/30 00:16:02;;;;;;;8.43;5.40;;;23.40;62.00;;;;;;5013634;28;20478;-44
2023/06/30 00:18:29;;;;;;;9.23;5.40;;;23.40;62.00;;;;;;5013555;28;20030;-43
2023/06/30 00:20:55;;;;;;;8.40;5.13;;;23.40;61.80;;;;;;5013612;28;20489;-44
2023/06/30 00:23:21;;;;;;;9.73;5.82;;;23.40;61.90;;;;;;5013034;28;20037;-44
2023/06/30 00:25:47;;;;;;;7.68;5.40;;;23.40;62.10;;;;;;5013344;28;20418;-44
2023/06/30 00:28:13;;;;;;;9.13;5.65;;;23.40;61.90;;;;;;5013414;28;20113;-45
2023/06/30 00:30:39;;;;;;;9.13;5.82;;;23.40;62.10;;;;;;5013433;28;20032;-45
2023/06/30 00:33:05;;;;;;;11.27;6.22;;;23.40;62.10;;;;;;5012483;28;20097;-44
2023/06/30 00:35:30;;;;;;;9.45;5.75;;;23.40;62.20;;;;;;5013077;28;20091;-43
2023/06/30 00:37:56;;;;;;;9.73;5.68;;;23.40;62.10;;;;;;5013389;28;20024;-44
2023/06/30 00:40:22;;;;;;;9.70;6.40;;;23.40;62.40;;;;;;5012166;28;20436;-43
2023/06/30 00:42:48;;;;;;;9.68;6.07;;;23.40;62.30;;;;;;5012798;28;20106;-46
2023/06/30 00:45:14;;;;;;;9.50;5.70;;;23.40;62.20;;;;;;5012866;28;20076;-43
2023/06/30 00:47:40;;;;;;;9.70;6.13;;;23.40;62.30;;;;;;5011835;28;20088;-43
2023/06/30 00:50:07;;;;;;;8.88;5.78;;;23.40;62.40;;;;;;5013098;28;20034;-46
2023/06/30 00:52:34;;;;;;;9.75;6.03;;;23.40;62.30;;;;;;5011486;28;20053;-43
2023/06/30 00:54:59;;;;;;;9.23;5.93;;;23.40;62.30;;;;;;5012950;28;20022;-46
2023/06/30 00:57:25;;;;;;;9.70;6.15;;;23.40;62.10;;;;;;5012913;28;20026;-43
2023/06/30 00:59:51;;;;;;;10.50;6.15;;;23.40;62.50;;;;;;5011763;28;20152;-43
2023/06/30 01:02:22;;;;;;;10.05;6.32;;;23.40;62.60;;;;;;5012700;28;20033;-44
2023/06/30 01:05:08;;;;;;;10.93;6.80;;;23.40;62.40;;;;;;5012589;28;20029;-43
2023/06/30 01:07:49;;;;;;;10.23;6.30;;;23.40;62.70;;;;;;5012759;28;20320;-44
2023/06/30 01:10:22;;;;;;;10.50;5.43;;;23.40;62.80;;;;;;5012704;28;20397;-45
2023/06/30 01:12:49;;;;;;;8.90;5.82;;;23.40;62.70;;;;;;5012331;28;20025;-47
2023/06/30 01:15:16;;;;;;;10.15;6.20;;;23.40;62.60;;;;;;5012652;28;20026;-45
2023/06/30 01:17:47;;;;;;;9.93;5.95;;;23.40;62.70;;;;;;5012535;28;20494;-44
2023/06/30 01:20:17;;;;;;;9.68;5.65;;;23.40;62.70;;;;;;5012703;28;20021;-44
2023/06/30 01:22:46;;;;;;;;;;;23.40;62.20;;;;;;5012502;28;20030;-43
2023/06/30 01:25:26;;;;;;;11.18;5.88;;;23.40;62.40;;;;;;5011292;28;19916;-43
2023/06/30 01:27:54;;;;;;;9.90;6.30;;;23.40;62.60;;;;;;5012482;28;20057;-45
2023/06/30 01:30:21;;;;;;;9.95;6.38;;;23.40;62.60;;;;;;5012400;28;20022;-44
2023/06/30 01:32:50;;;;;;;11.23;6.40;;;23.40;62.60;;;;;;4994416;28;20036;-43
2023/06/30 01:35:16;;;;;;;11.90;6.55;;;23.40;62.70;;;;;;5012254;28;20061;-44
2023/06/30 01:37:42;;;;;;;8.88;5.93;;;23.40;62.70;;;;;;5011092;28;20037;-44
2023/06/30 01:40:08;;;;;;;10.88;6.50;;;23.40;62.60;;;;;;5011200;28;20034;-44
2023/06/30 01:42:36;;;;;;;10.80;6.80;;;23.40;62.60;;;;;;5011822;28;20073;-44
2023/06/30 01:45:04;;;;;;;11.23;6.22;;;23.40;62.80;;;;;;5010624;28;20022;-47
2023/06/30 01:47:31;;;;;;;10.65;7.00;;;23.40;62.90;;;;;;5010852;28;20030;-45
2023/06/30 01:49:57;;;;;;;9.15;6.18;;;23.40;62.90;;;;;;5012141;28;20498;-47
2023/06/30 01:52:23;;;;;;;9.68;5.78;;;23.40;62.80;;;;;;5011911;28;20022;-47
2023/06/30 01:54:49;;;;;;;11.32;6.55;;;23.40;62.60;;;;;;5010560;28;20022;-48
2023/06/30 01:57:15;;;;;;;12.23;7.30;;;23.40;62.80;;;;;;5011991;28;20053;-48
2023/06/30 01:59:41;;;;;;;11.50;7.05;;;23.40;63.00;;;;;;5010765;28;20390;-44
2023/06/30 02:02:07;;;;;;;12.15;6.57;;;23.40;63.00;;;;;;5011479;28;20029;-43
2023/06/30 02:04:34;;;;;;;10.73;6.90;;;23.40;63.00;;;;;;5010397;28;20441;-43
2023/06/30 02:06:59;;;;;;;11.48;7.20;;;23.40;63.00;;;;;;5011838;28;20080;-46
2023/06/30 02:09:25;;;;;;;11.68;7.25;;;23.40;63.00;;;;;;5011774;28;20018;-43
2023/06/30 02:11:51;;;;;;;12.32;7.53;;;23.40;63.00;;;;;;5010625;28;20022;-47
2023/06/30 02:14:17;;;;;;;10.73;6.90;;;23.40;63.00;;;;;;5010292;28;20065;-44
2023/06/30 02:16:43;;;;;;;10.98;6.93;;;23.40;62.90;;;;;;5011782;28;20052;-45
2023/06/30 02:19:09;;;;;;;10.48;6.57;;;23.40;63.00;;;;;;5010650;28;20037;-46
2023/06/30 02:21:35;;;;;;;10.85;6.80;;;23.40;62.90;;;;;;5010652;28;20091;-50
2023/06/30 02:24:01;;;;;;;13.77;7.28;;;23.40;62.90;;;;;;5011232;28;20124;-49
2023/06/30 02:26:26;;;;;;;13.38;7.22;;;23.40;63.00;;;;;;5011632;28;20527;-44
2023/06/30 02:28:52;;;;;;;11.57;7.57;;;23.40;63.10;;;;;;5011691;28;20049;-45
2023/06/30 02:31:19;;;;;;;12.07;7.30;;;23.40;63.10;;;;;;5011637;28;20062;-51
2023/06/30 02:33:44;;;;;;;11.00;7.78;;;23.40;63.10;;;;;;5011239;28;20107;-43
2023/06/30 02:36:10;;;;;;;12.77;7.28;;;23.40;63.10;;;;;;5011632;28;20397;-44
2023/06/30 02:38:36;;;;;;;10.90;7.07;;;23.40;63.20;;;;;;5011521;28;20437;-47
2023/06/30 02:41:02;;;;;;;12.02;7.95;;;23.40;63.10;;;;;;5010630;28;20034;-48
2023/06/30 02:43:29;;;;;;;12.38;7.65;;;23.40;63.10;;;;;;5010013;28;20034;-49
2023/06/30 02:45:55;;;;;;;11.73;7.55;;;23.40;63.20;;;;;;5011403;28;20374;-43
2023/06/30 02:48:21;;;;;;;11.90;7.57;;;23.40;63.20;;;;;;5010332;28;20065;-46
2023/06/30 02:50:47;;;;;;;10.75;7.22;;;23.40;63.20;;;;;;5010272;28;20026;-45
2023/06/30 02:53:15;;;;;;;11.73;7.38;;;23.40;63.20;;;;;;5009846;28;20084;-45
2023/06/30 02:55:41;;;;;;;11.65;7.80;;;23.40;63.20;;;;;;5010271;28;20030;-49
2023/06/30 02:58:11;;;;;;;12.23;7.72;;;23.40;63.30;;;;;;5013190;28;20022;-44
2023/06/30 03:00:39;;;;;;;11.95;7.57;;;23.40;63.30;;;;;;5013443;28;20032;-44
2023/06/30 03:03:05;;;;;;;13.65;7.97;;;23.40;63.30;;;;;;5013690;28;20083;-46
2023/06/30 03:05:34;;;;;;;12.75;8.00;;;23.40;63.30;;;;;;5013799;28;20398;-44
2023/06/30 03:08:03;;;;;;;11.38;7.65;;;23.40;63.30;;;;;;5014057;28;20021;-44
2023/06/30 03:10:29;;;;;;;13.35;7.88;;;23.40;63.20;;;;;;5013768;28;20045;-44
2023/06/30 03:12:55;;;;;;;13.05;8.43;;;23.40;63.40;;;;;;5013380;28;20026;-45
2023/06/30 03:15:22;;;;;;;13.20;8.23;;;23.40;63.40;;;;;;4997455;28;20030;-43
2023/06/30 03:17:53;;;;;;;11.70;7.18;;;23.40;63.30;;;;;;5013604;28;20457;-46
2023/06/30 03:20:19;;;;;;;12.00;8.00;;;23.40;63.40;;;;;;5013476;28;20062;-44
2023/06/30 03:22:45;;;;;;;12.07;7.78;;;23.40;63.40;;;;;;5013166;28;20034;-43
2023/06/30 03:25:11;;;;;;;11.73;7.75;;;23.40;63.30;;;;;;5013591;28;20109;-44
2023/06/30 03:27:37;;;;;;;11.57;7.55;;;23.40;63.50;;;;;;5013285;28;20129;-45
2023/06/30 03:30:04;;;;;;;12.02;8.38;;;23.40;63.50;;;;;;5013508;28;20548;-43
2023/06/30 03:32:33;;;;;;;11.02;7.45;;;23.40;63.50;;;;;;5013106;28;20026;-46
2023/06/30 03:35:03;;;;;;;12.32;7.07;;;23.40;63.10;;;;;;5013252;28;20029;-45
2023/06/30 03:37:31;;;;;;;13.50;8.48;;;23.40;63.50;;;;;;5013292;28;20036;-44
2023/06/30 03:39:57;;;;;;;12.68;7.85;;;23.40;63.60;;;;;;5013176;28;20037;-43
2023/06/30 03:42:23;;;;;;;12.88;8.38;;;23.40;63.60;;;;;;5013084;28;20026;-49
2023/06/30 03:44:49;;;;;;;12.73;8.45;;;23.40;63.60;;;;;;5014106;28;20022;-44
2023/06/30 03:47:14;;;;;;;12.18;7.57;;;23.40;63.60;;;;;;5014222;28;20460;-43
2023/06/30 03:49:41;;;;;;;12.50;7.78;;;23.40;63.60;;;;;;5013166;28;20029;-43
2023/06/30 03:52:06;;;;;;;12.00;8.27;;;23.40;63.50;;;;;;5012858;28;20080;-47
2023/06/30 03:54:33;;;;;;;13.02;7.75;;;23.40;63.50;;;;;;5012675;28;20030;-46
2023/06/30 03:56:59;;;;;;;13.48;8.00;;;23.40;63.30;;;;;;5012849;28;20030;-44
2023/06/30 03:59:25;;;;;;;13.20;8.60;;;23.40;63.50;;;;;;5014050;28;20485;-44
2023/06/30 04:01:52;;;;;;;12.35;7.93;;;23.40;63.50;;;;;;5012880;28;20080;-45
2023/06/30 04:04:18;;;;;;;12.00;7.75;;;23.40;63.40;;;;;;5013602;28;20037;-44
2023/06/30 04:06:44;;;;;;;11.73;8.15;;;23.40;63.30;;;;;;5014021;28;20408;-50
2023/06/30 04:09:10;;;;;;;12.77;8.57;;;23.40;63.50;;;;;;5013070;28;20075;-44
2023/06/30 04:11:36;;;;;;;13.20;8.88;;;23.40;63.40;;;;;;5013801;28;20030;-44
2023/06/30 04:14:02;;;;;;;11.95;8.05;;;23.40;63.60;;;;;;5013391;28;20370;-44
2023/06/30 04:16:28;;;;;;;14.38;8.77;;;23.40;63.50;;;;;;5013652;28;20050;-44
2023/06/30 04:18:55;;;;;;;12.27;8.13;;;23.40;63.60;;;;;;5012454;28;20037;-44
2023/06/30 04:21:21;;;;;;;12.25;7.95;;;23.40;63.60;;;;;;5013623;28;20161;-43
2023/06/30 04:23:46;;;;;;;13.02;9.18;;;23.40;63.60;;;;;;5013109;28;20041;-46
2023/06/30 04:26:16;;;;;;;12.55;8.02;;;23.40;63.50;;;;;;5013608;28;20030;-44
2023/06/30 04:28:44;;;;;;;12.73;8.20;;;23.40;63.60;;;;;;5013564;28;20018;-45
2023/06/30 04:31:09;;;;;;;14.60;8.73;;;23.40;63.70;;;;;;5013254;28;20028;-44
2023/06/30 04:33:35;;;;;;;13.25;8.50;;;23.40;63.60;;;;;;5013026;28;20030;-44
2023/06/30 04:36:01;;;;;;;13.55;8.90;;;23.40;63.50;;;;;;5013296;28;20401;-44
2023/06/30 04:38:27;;;;;;;13.85;8.68;;;23.40;63.60;;;;;;5013262;28;20026;-44
2023/06/30 04:40:54;;;;;;;15.30;9.30;;;23.40;63.60;;;;;;5013315;28;20045;-45
2023/06/30 04:43:20;;;;;;;12.80;8.95;;;23.40;63.70;;;;;;5012529;28;20115;-44
2023/06/30 04:45:46;;;;;;;12.55;8.48;;;23.40;63.70;;;;;;5013359;28;20033;-43
2023/06/30 04:48:11;;;;;;;12.55;8.75;;;23.40;63.50;;;;;;5013342;28;20030;-48
2023/06/30 04:50:37;;;;;;;12.20;8.45;;;23.40;63.40;;;;;;5011938;28;20026;-44
2023/06/30 04:53:03;;;;;;;15.02;9.50;;;23.40;63.60;;;;;;5012788;28;20026;-52
2023/06/30 04:55:29;;;;;;;14.02;9.23;;;23.40;63.60;;;;;;5012969;28;20033;-49
2023/06/30 04:57:56;;;;;;;12.60;8.98;;;23.40;63.50;;;;;;5012916;28;20022;-49
2023/06/30 05:00:22;;;;;;;13.13;8.82;;;23.40;63.80;;;;;;5012901;28;20105;-52
2023/06/30 05:02:49;;;;;;;12.85;8.70;;;23.40;64.00;;;;;;5012539;28;20037;-46
2023/06/30 05:05:15;;;;;;;12.23;7.95;;;23.40;63.50;;;;;;5012805;28;20036;-50
2023/06/30 05:07:41;;;;;;;13.25;8.85;;;23.40;63.30;;;;;;5012801;28;20084;-50
2023/06/30 05:10:08;;;;;;;12.60;7.95;;;23.40;63.50;;;;;;5012849;28;20033;-51
2023/06/30 05:12:34;;;;;;;13.55;9.35;;;23.40;63.30;;;;;;5012262;28;20026;-48
2023/06/30 05:15:00;;;;;;;14.75;9.52;;;23.40;63.40;;;;;;5012664;28;20029;-49
2023/06/30 05:17:25;;;;;;;14.20;9.07;;;23.40;63.60;;;;;;5012802;28;20497;-49
2023/06/30 05:19:51;;;;;;;12.73;8.70;;;23.40;63.50;;;;;;5012244;28;20474;-49
2023/06/30 05:22:17;;;;;;;13.25;9.30;;;23.40;63.50;;;;;;5012279;28;20125;-49
2023/06/30 05:24:43;;;;;;;12.93;8.52;;;23.40;63.50;;;;;;5012194;28;20033;-44
2023/06/30 05:27:09;;;;;;;15.07;9.52;;;23.40;63.20;;;;;;5012361;28;20022;-45
2023/06/30 05:29:34;;;;;;;13.85;9.05;;;23.40;63.80;;;;;;5012516;28;20375;-52
2023/06/30 05:32:00;;;;;;;13.40;9.07;;;23.40;63.70;;;;;;5012243;28;20088;-50
2023/06/30 05:34:26;;;;;;;15.63;9.48;;;23.40;63.70;;;;;;5012409;28;20026;-44
2023/06/30 05:36:52;;;;;;;15.15;9.85;;;23.50;63.80;;;;;;5012301;28;20489;-44
2023/06/30 05:39:18;;;;;;;15.65;10.02;;;23.50;63.80;;;;;;5012135;28;20099;-43
2023/06/30 05:41:44;;;;;;;15.70;10.35;;;23.50;63.80;;;;;;5010904;28;20516;-51
2023/06/30 05:44:09;;;;;;;15.75;10.45;;;23.50;63.70;;;;;;5011518;28;20079;-43
2023/06/30 05:46:38;;;;;;;14.93;9.52;;;23.50;63.80;;;;;;5012015;28;20035;-46
2023/06/30 05:49:05;;;;;;;16.95;10.88;;;23.50;63.80;;;;;;5012121;28;20056;-46
2023/06/30 05:51:35;;;;;;;15.05;9.25;;;23.50;63.80;;;;;;5012046;28;20030;-49
2023/06/30 05:54:02;;;;;;;16.42;10.75;;;23.50;63.70;;;;;;5011706;28;20026;-46
2023/06/30 05:56:28;;;;;;;16.58;10.35;;;23.50;64.20;;;;;;5011865;28;20041;-47
2023/06/30 05:58:54;;;;;;;15.10;10.13;;;23.50;63.80;;;;;;5011984;28;20405;-45
2023/06/30 06:01:20;;;;;;;15.02;10.07;;;23.50;64.40;;;;;;5011860;28;20109;-45
2023/06/30 06:03:47;;;;;;;15.82;10.23;;;23.50;63.50;;;;;;5011529;28;20466;-45
2023/06/30 06:06:13;;;;;;;15.48;10.43;;;23.50;63.80;;;;;;5011826;28;20026;-49
2023/06/30 06:08:42;;;;;;;13.48;9.15;;;23.50;63.50;;;;;;5011884;28;20050;-44
2023/06/30 06:11:08;;;;;;;16.08;10.98;;;23.50;63.30;;;;;;5011864;28;20386;-44
2023/06/30 06:13:37;;;;;;;13.73;9.73;;;23.50;63.70;;;;;;5011548;28;20034;-43
2023/06/30 06:16:04;;;;;;;;;;;23.50;64.10;;;;;;5012700;28;20029;-51
2023/06/30 06:18:30;;;;;;;16.48;10.43;;;23.50;63.60;;;;;;5011653;28;19964;-46
2023/06/30 06:20:57;;;;;;;15.50;10.32;;;23.50;63.60;;;;;;5011804;28;20037;-46
2023/06/30 06:23:23;;;;;;;14.10;9.52;;;23.50;63.50;;;;;;5011122;28;20137;-50
2023/06/30 06:25:50;;;;;;;15.77;10.15;;;23.40;63.40;;;;;;5011563;28;20022;-44
2023/06/30 06:28:16;;;;;;;16.55;10.05;;;23.50;63.30;;;;;;5011629;28;20101;-43
2023/06/30 06:30:42;;;;;;;15.73;10.52;;;23.40;63.50;;;;;;5011579;28;20493;-46
2023/06/30 06:33:08;;;;;;;15.45;10.38;;;23.50;63.40;;;;;;5014284;28;20045;-43
2023/06/30 06:35:34;;;;;;;14.82;9.48;;;23.40;63.60;;;;;;5015640;28;20088;-44
2023/06/30 06:38:00;;;;;;;15.20;9.95;;;23.50;63.20;;;;;;5015501;28;20088;-43
2023/06/30 06:40:28;;;;;;;16.55;10.00;;;23.50;63.40;;;;;;5015430;28;20026;-49
2023/06/30 06:42:55;;;;;;;14.10;9.43;;;23.50;63.20;;;;;;5015104;28;20026;-45
2023/06/30 06:45:26;;;;;;;15.25;10.30;;;23.50;63.20;;;;;;5014015;28;20030;-43
2023/06/30 06:48:20;;;;;;;16.40;10.07;;;23.50;63.10;;;;;;5015251;28;20029;-43
2023/06/30 06:50:57;;;;;;;14.35;9.80;;;23.50;63.00;;;;;;5015481;28;20025;-46
2023/06/30 06:53:27;;;;;;;15.48;10.10;;;23.40;63.10;;;;;;5014963;28;20062;-47
2023/06/30 06:55:55;;;;;;;16.13;10.02;;;23.50;63.10;;;;;;5015235;28;20030;-45
2023/06/30 06:58:22;;;;;;;14.48;9.45;;;23.50;63.20;;;;;;5015137;28;20034;-47
2023/06/30 07:00:50;;;;;;;15.23;10.18;;;23.50;63.20;;;;;;5015119;28;20065;-45
2023/06/30 07:03:16;;;;;;;16.15;9.75;;;23.50;63.20;;;;;;5015134;28;20073;-45
2023/06/30 07:05:44;;;;;;;14.20;9.77;;;23.40;63.00;;;;;;5014995;28;20083;-47
2023/06/30 07:08:11;;;;;;;15.77;10.75;;;23.50;63.60;;;;;;5013729;28;20037;-44
2023/06/30 07:10:37;;;;;;;15.30;10.43;;;23.50;63.50;;;;;;5014860;28;20052;-44
2023/06/30 07:13:04;;;;;;;16.45;10.38;;;23.40;63.50;;;;;;5014550;28;20551;-44
2023/06/30 07:15:30;;;;;;;15.23;10.63;;;23.50;63.50;;;;;;5014888;28;20037;-44
2023/06/30 07:17:56;;;;;;;16.75;11.60;;;23.50;63.50;;;;;;5015174;28;20037;-44
2023/06/30 07:20:23;;;;;;;16.60;11.07;;;23.40;63.50;;;;;;5014787;28;20033;-43
2023/06/30 07:22:51;;;;;;;15.95;11.23;;;23.50;63.50;;;;;;5014258;28;20033;-45
2023/06/30 07:25:17;;;;;;;16.63;11.20;;;23.50;63.50;;;;;;5014800;28;20026;-45
2023/06/30 07:27:53;;;;;;;16.63;10.95;;;23.50;63.50;;;;;;5014580;28;20061;-47
2023/06/30 07:30:20;;;;;;;16.25;10.30;;;23.50;64.10;;;;;;5014647;28;20153;-43
2023/06/30 07:32:46;;;;;;;16.35;10.60;;;23.50;63.50;;;;;;5014229;28;20497;-50
2023/06/30 07:35:12;;;;;;;16.02;10.98;;;23.40;63.50;;;;;;5014469;28;20026;-46
2023/06/30 07:37:38;;;;;;;18.65;11.32;;;23.50;63.50;;;;;;5014440;28;20128;-45
2023/06/30 07:40:04;;;;;;;15.13;10.25;;;23.50;63.50;;;;;;5014466;28;20501;-46
2023/06/30 07:42:30;;;;;;;15.65;10.60;;;23.40;63.50;;;;;;5014057;28;20030;-44
2023/06/30 07:44:56;;;;;;;15.68;10.82;;;23.50;63.20;;;;;;5014188;28;20037;-43
2023/06/30 07:47:22;;;;;;;15.48;11.05;;;23.50;63.60;;;;;;5014260;28;20038;-46
2023/06/30 07:49:47;;;;;;;16.50;11.20;;;23.40;63.60;;;;;;5014239;28;20034;-46
2023/06/30 07:52:13;;;;;;;16.73;10.88;;;23.40;63.60;;;;;;5014020;28;20084;-44
2023/06/30 07:54:41;;;;;;;18.40;11.57;;;23.50;63.60;;;;;;5010640;28;20571;-44
2023/06/30 07:57:07;;;;;;;17.05;11.55;;;23.40;64.20;;;;;;5007262;28;20579;-43
2023/06/30 07:59:33;;;;;;;17.75;11.32;;;23.40;65.20;;;;;;5006234;28;20298;-43
2023/06/30 08:01:59;;;;;;;25.63;11.75;;;23.50;64.00;;;;;;5008734;28;20033;-44
2023/06/30 08:04:25;;;;;;;16.67;10.55;;;23.50;64.40;;;;;;5008308;28;20472;-43
2023/06/30 08:06:51;;;;;;;17.70;11.40;;;23.50;64.10;;;;;;5008786;28;20022;-42
2023/06/30 08:09:16;;;;;;;18.90;11.45;;;23.50;64.00;;;;;;5010523;28;20037;-49
2023/06/30 08:11:42;;;;;;;18.73;12.70;;;23.50;64.80;;;;;;5007282;28;20044;-46
2023/06/30 08:14:08;;;;;;;19.08;12.60;;;23.50;64.70;;;;;;5010773;28;20030;-46
2023/06/30 08:16:34;;;;;;;20.50;12.98;;;23.60;64.90;;;;;;5011701;28;20034;-47
2023/06/30 08:19:00;;;;;;;21.27;12.82;;;23.60;64.70;;;;;;5011483;28;20449;-46
2023/06/30 08:21:25;;;;;;;21.90;13.73;;;23.70;65.70;;;;;;5011590;28;20132;-44
2023/06/30 08:23:51;;;;;;;22.08;13.20;;;23.70;65.60;;;;;;5010872;28;20080;-48
2023/06/30 08:26:17;;;;;;;19.30;13.18;;;23.70;65.60;;;;;;5011480;28;20040;-44
2023/06/30 08:28:43;;;;;;;18.02;12.23;;;23.70;65.80;;;;;;5009871;28;20021;-46
2023/06/30 08:31:09;;;;;;;19.45;12.30;;;23.70;66.00;;;;;;5021559;28;20109;-45
2023/06/30 08:37:48;;;;;;;20.35;12.15;;;23.70;66.00;;;;;;4997569;28;20041;-57
2023/06/30 08:40:29;;;;;;;19.50;13.32;;;23.80;65.90;;;;;;5001628;28;20034;-55
2023/06/30 08:42:59;;;;;;;18.52;10.82;;;23.70;65.80;;;;;;5008369;28;20018;-56
2023/06/30 08:45:27;;;;;;;18.88;11.45;;;23.80;66.00;;;;;;4991530;28;20034;-58
2023/06/30 08:47:59;;;;;;;22.08;11.77;;;23.80;66.00;;;;;;4989098;28;20033;-58
2023/06/30 08:50:26;;;;;;;18.48;11.25;;;23.80;66.00;;;;;;4988933;28;20037;-56
2023/06/30 08:52:53;;;;;;;21.33;12.35;;;23.80;66.60;;;;;;4989921;28;20022;-57
2023/06/30 08:55:19;;;;;;;18.40;11.77;;;23.80;66.20;;;;;;4989306;28;20026;-57
2023/06/30 08:57:45;;;;;;;18.65;11.88;;;23.80;66.30;;;;;;5016520;23;20104;-42
2023/06/30 09:00:12;;;;;;;20.83;12.77;;;23.80;66.40;;;;;;5035770;28;20040;-45
2023/06/30 09:02:38;;;;;;;31.02;12.52;;;23.80;66.40;;;;;;5016447;28;20426;-42
2023/06/30 09:05:05;;;;;;;33.25;12.80;;;23.80;66.60;;;;;;4996374;28;20028;-42
2023/06/30 09:07:41;;;;;;;37.85;14.75;;;23.80;67.30;;;;;;5021539;28;20030;-42
2023/06/30 09:10:09;;;;;;;24.48;12.90;;;23.80;68.30;;;;;;5032478;28;20396;-42
2023/06/30 09:12:38;;;;;;;22.63;12.45;;;23.80;68.30;;;;;;5032719;28;20022;-43
2023/06/30 09:15:07;;;;;;;22.17;12.57;;;23.70;69.10;;;;;;5030127;28;20148;-42
2023/06/30 09:17:34;;;;;;;26.80;12.85;;;23.80;69.60;;;;;;5029299;28;20278;-48
2023/06/30 09:19:59;;;;;;;20.50;12.25;;;23.70;68.70;;;;;;5043716;28;20415;-43
2023/06/30 09:22:25;;;;;;;24.67;12.88;;;23.70;67.50;;;;;;5037071;28;20484;-43
2023/06/30 09:24:51;;;;;;;20.65;11.40;;;23.80;68.00;;;;;;5029541;28;20166;-43
2023/06/30 09:27:18;;;;;;;25.58;13.55;;;23.70;67.20;;;;;;5029186;28;20025;-48
2023/06/30 09:29:52;;;;;;;23.08;12.73;;;23.70;67.30;;;;;;5028870;28;20103;-42
2023/06/30 09:32:24;;;;;;;25.83;12.77;;;23.70;67.30;;;;;;5009261;28;20037;-42
2023/06/30 09:34:53;;;;;;;26.35;12.95;;;23.70;67.30;;;;;;5028410;28;20030;-43
2023/06/30 09:37:20;;;;;;;30.80;13.88;;;23.70;67.30;;;;;;5031825;28;20029;-43
2023/06/30 09:39:52;;;;;;;27.00;13.80;;;23.80;67.00;;;;;;5029381;28;20033;-45
2023/06/30 09:42:20;;;;;;;28.33;13.63;;;23.70;67.10;;;;;;5038904;28;20025;-44
2023/06/30 09:44:46;;;;;;;26.20;12.93;;;23.70;66.90;;;;;;5047065;28;20044;-47
2023/06/30 09:47:12;;;;;;;25.08;13.88;;;23.70;67.00;;;;;;5045151;28;20025;-47
2023/06/30 09:49:39;;;;;;;27.00;13.85;;;23.80;67.10;;;;;;5029242;28;20037;-43
2023/06/30 09:52:06;;;;;;;31.30;16.00;;;23.80;67.50;;;;;;5029330;28;20064;-49
2023/06/30 09:54:33;;;;;;;35.80;15.82;;;23.80;67.20;;;;;;5029150;28;20018;-44
2023/06/30 09:57:05;;;;;;;31.30;15.50;;;23.80;67.40;;;;;;5028874;28;20144;-43
2023/06/30 09:59:31;;;;;;;37.58;16.35;;;23.80;67.20;;;;;;5025997;28;20033;-43
2023/06/30 10:01:58;;;;;;;38.10;15.85;;;23.80;67.20;;;;;;5028776;28;20032;-43
2023/06/30 10:04:25;;;;;;;28.65;14.60;;;23.80;67.20;;;;;;5028984;28;20419;-43
2023/06/30 10:06:52;;;;;;;41.67;15.73;;;23.90;67.00;;;;;;5027785;28;20038;-49
2023/06/30 10:09:23;;;;;;;36.08;16.52;;;23.90;68.00;;;;;;5029143;28;20014;-44
2023/06/30 10:11:51;;;;;;;39.85;14.32;;;23.90;67.10;;;;;;5029225;28;20036;-48
2023/06/30 10:14:20;;;;;;;38.10;14.75;;;23.90;67.10;;;;;;5028728;28;20021;-44
2023/06/30 10:16:47;;;;;;;40.92;17.05;;;23.90;67.20;;;;;;5024891;28;20033;-48
2023/06/30 10:19:14;;;;;;;32.50;15.18;;;23.90;67.30;;;;;;5010832;28;20084;-51
2023/06/30 10:21:41;;;;;;;34.22;15.02;;;23.90;67.30;;;;;;5028964;28;20036;-49
2023/06/30 10:24:11;;;;;;;37.25;16.40;;;23.90;67.30;;;;;;5009964;28;20563;-49
2023/06/30 10:26:39;;;;;;;34.47;16.40;;;23.90;67.20;;;;;;5028736;28;20542;-47
2023/06/30 10:29:05;;;;;;;39.80;16.63;;;23.90;67.10;;;;;;5028694;28;20109;-46
2023/06/30 10:31:32;;;;;;;31.63;15.35;;;23.90;67.20;;;;;;5028748;28;20116;-47
2023/06/30 10:33:58;;;;;;;38.42;15.27;;;23.90;67.20;;;;;;5028311;28;20032;-43
2023/06/30 10:36:25;;;;;;;37.92;16.42;;;23.90;67.20;;;;;;5010643;28;20035;-42
2023/06/30 10:38:51;;;;;;;31.48;16.10;;;23.90;67.20;;;;;;5011164;28;20037;-44
2023/06/30 10:41:19;;;;;;;30.85;15.07;;;23.80;67.30;;;;;;5028626;28;20052;-50
2023/06/30 10:44:03;;;;;;;28.70;14.73;;;23.90;67.30;;;;;;5028387;28;20036;-45
2023/06/30 10:46:46;;;;;;;32.17;15.73;;;23.80;67.30;;;;;;5028665;28;20029;-43
2023/06/30 10:49:31;;;;;;;30.85;14.98;;;23.80;67.40;;;;;;5028871;28;20033;-45
2023/06/30 10:52:00;;;;;;;34.22;16.08;;;23.90;67.30;;;;;;5025632;28;20110;-43
2023/06/30 10:54:28;;;;;;;41.03;14.27;;;23.90;67.40;;;;;;5028109;28;20113;-43
2023/06/30 10:57:05;;;;;;;59.45;15.10;;;23.90;67.40;;;;;;5026296;28;20033;-43
2023/06/30 11:00:07;;;;;;;42.25;15.73;;;23.90;67.60;;;;;;5025897;28;20095;-42
2023/06/30 11:02:34;;;;;;;35.03;15.63;;;23.90;67.70;;;;;;5026368;28;20121;-43
2023/06/30 11:05:21;;;;;;;45.60;15.88;;;24.00;67.70;;;;;;5025859;28;20415;-44
2023/06/30 11:07:49;;;;;;;39.20;15.02;;;24.00;67.70;;;;;;5023432;28;20033;-44
2023/06/30 11:10:36;;;;;;;29.85;14.35;;;24.00;67.50;;;;;;5024854;28;20052;-43
2023/06/30 11:13:05;;;;;;;37.33;16.50;;;24.00;67.60;;;;;;5027405;28;20084;-49
2023/06/30 11:15:37;;;;;;;33.58;15.45;;;24.00;67.80;;;;;;5042904;28;20408;-44
2023/06/30 11:18:14;;;;;;;30.27;15.50;;;24.00;67.80;;;;;;5042172;28;20045;-43
2023/06/30 11:20:59;;;;;;;42.92;17.13;;;24.00;69.80;;;;;;5046962;28;20507;-42
2023/06/30 11:23:28;;;;;;;30.80;14.85;;;24.10;70.60;;;;;;5040494;28;20033;-44
2023/06/30 11:25:57;;;;;;;44.63;16.20;;;24.10;70.30;;;;;;5046706;28;20581;-43
2023/06/30 11:28:25;;;;;;;36.13;16.92;;;24.00;69.50;;;;;;5044897;28;20026;-44
2023/06/30 11:30:51;;;;;;;35.10;16.02;;;24.00;68.00;;;;;;5033275;28;20530;-43
2023/06/30 11:33:18;;;;;;;30.88;15.60;;;24.00;68.70;;;;;;5010084;28;20030;-43
2023/06/30 11:35:50;;;;;;;34.95;15.65;;;24.00;69.40;;;;;;5027555;28;20022;-44
2023/06/30 11:38:16;;;;;;;35.70;16.20;;;24.00;69.80;;;;;;5031374;28;20021;-42
2023/06/30 11:40:47;;;;;;;35.20;17.65;;;24.00;68.70;;;;;;5031489;28;20028;-40
2023/06/30 11:43:14;;;;;;;35.13;16.42;;;24.00;68.50;;;;;;5030358;28;20018;-41
2023/06/30 11:45:39;;;;;;;39.78;17.00;;;24.00;69.60;;;;;;5031655;28;20018;-43
2023/06/30 11:48:05;;;;;;;37.53;18.05;;;24.00;69.90;;;;;;5030934;28;20044;-46
2023/06/30 11:50:33;;;;;;;35.80;16.00;;;24.00;70.60;;;;;;5010291;28;20026;-44
2023/06/30 11:53:00;;;;;;;32.28;16.27;;;24.00;69.10;;;;;;5030974;28;20049;-41
2023/06/30 11:55:28;;;;;;;34.17;15.95;;;24.00;69.10;;;;;;5030709;28;20013;-45
2023/06/30 11:57:54;;;;;;;30.42;15.80;;;24.00;68.80;;;;;;5030868;28;20543;-41
2023/06/30 12:00:23;;;;;;;30.77;15.93;;;24.00;68.90;;;;;;5031248;28;20083;-43
2023/06/30 12:02:58;;;;;;;32.35;17.08;;;24.00;68.80;;;;;;5009712;28;20041;-42
2023/06/30 12:05:26;;;;;;;35.33;18.20;;;24.10;68.80;;;;;;5030972;28;20021;-41
2023/06/30 12:07:55;;;;;;;36.22;16.83;;;24.10;68.80;;;;;;5030426;28;20094;-43
2023/06/30 12:10:22;;;;;;;36.75;17.02;;;24.10;69.30;;;;;;5030707;28;20084;-43
2023/06/30 12:12:58;;;;;;;38.20;18.20;;;24.10;69.00;;;;;;5029607;28;20228;-44
2023/06/30 12:15:24;;;;;;;31.95;16.50;;;24.10;69.10;;;;;;5029978;28;20074;-44
2023/06/30 12:17:54;;;;;;;34.45;17.13;;;24.20;69.00;;;;;;5030628;28;20034;-46
2023/06/30 12:20:20;;;;;;;;;;;24.20;69.10;;;;;;5013607;28;20026;-48
2023/06/30 12:22:50;;;;;;;34.15;16.38;;;24.20;69.40;;;;;;5038006;28;19916;-44
2023/06/30 12:25:18;;;;;;;;;;;24.20;70.20;;;;;;5048350;28;20028;-45
2023/06/30 12:27:45;;;;;;;35.38;17.52;;;24.20;69.30;;;;;;5042782;28;20380;-51
2023/06/30 12:30:18;;;;;;;31.23;15.82;;;24.20;69.40;;;;;;5031339;28;20470;-50
2023/06/30 12:32:45;;;;;;;38.83;18.13;;;24.20;68.90;;;;;;5042935;28;20061;-46
2023/06/30 12:35:12;;;;;;;31.60;15.57;;;24.20;68.90;;;;;;5026115;28;20068;-50
2023/06/30 12:37:38;;;;;;;30.50;16.40;;;24.20;69.20;;;;;;5027518;28;20036;-45
2023/06/30 12:40:06;;;;;;;39.67;18.70;;;24.20;68.70;;;;;;5027838;28;20029;-46